sensor_id;sensor_type;location;lat;lon;timestamp;P1;durP1;ratioP1;P2;durP2;ratioP2
16862;SDS011;52193;48.216;-1.698;2023-06-04T00:00:10;4.53;;;3.25;;
16862;SDS011;52193;48.216;-1.698;2023-06-04T00:02:38;5.68;;;3.10;;
16862;SDS011;52193;48.216;-1.698;2023-06-04T00:05:05;4.05;;;3.15;;
16862;SDS011;52193;48.216;-1.698;2023-06-04T00:07:32;3.90;;;3.20;;
16862;SDS011;52193;48.216;-1.698;2023-06-04T00:09:59;5.00;;;3.42;;
16862;SDS011;52193;48.216;-1.698;2023-06-04T00:12:26;4.05;;;3.20;;
16862;SDS011;52193;48.216;-1.698;2023-06-04T00:14:54;4.20;;;3.72;;
16862;SDS011;52193;48.216;-1.698;2023-06-04T00:17:21;5.25;;;3.60;;
16862;SDS011;52193;48.216;-1.698;2023-06-04T00:19:48;3.30;;;3.00;;
16862;SDS011;52193;48.216;-1.698;2023-06-04T00:22:15;6.38;;;3.55;;
16862;SDS011;52193;48.216;-1.698;2023-06-04T00:24:42;4.00;;;3.60;;
16862;SDS011;52193;48.216;-1.698;2023-06-04T00:27:09;5.30;;;3.50;;
16862;SDS011;52193;48.216;-1.698;2023-06-04T00:29:36;4.13;;;3.25;;
16862;SDS011;52193;48.216;-1.698;2023-06-04T00:32:04;6.32;;;3.38;;
16862;SDS011;52193;48.216;-1.698;2023-06-04T00:34:32;5.78;;;3.83;;
16862;SDS011;52193;48.216;-1.698;2023-06-04T00:36:59;5.82;;;3.50;;
16862;SDS011;52193;48.216;-1.698;2023-06-04T00:39:26;4.50;;;3.10;;
16862;SDS011;52193;48.216;-1.698;2023-06-04T00:41:54;6.20;;;3.50;;
16862;SDS011;52193;48.216;-1.698;2023-06-04T00:44:21;4.68;;;3.30;;
16862;SDS011;52193;48.216;-1.698;2023-06-04T00:46:50;6.05;;;3.75;;
16862;SDS011;52193;48.216;-1.698;2023-06-04T00:49:20;5.18;;;3.70;;
16862;SDS011;52193;48.216;-1.698;2023-06-04T00:51:47;5.72;;;3.63;;
16862;SDS011;52193;48.216;-1.698;2023-06-04T00:54:14;5.28;;;3.13;;
16862;SDS011;52193;48.216;-1.698;2023-06-04T00:56:43;5.13;;;3.50;;
16862;SDS011;52193;48.216;-1.698;2023-06-04T00:59:10;4.60;;;3.60;;
16862;SDS011;52193;48.216;-1.698;2023-06-04T01:01:48;4.75;;;3.67;;
16862;SDS011;52193;48.216;-1.698;2023-06-04T01:04:24;4.90;;;3.58;;
16862;SDS011;52193;48.216;-1.698;2023-06-04T01:06:56;4.47;;;3.47;;
16862;SDS011;52193;48.216;-1.698;2023-06-04T01:09:24;6.22;;;3.53;;
16862;SDS011;52193;48.216;-1.698;2023-06-04T01:11:53;4.80;;;3.15;;
16862;SDS011;52193;48.216;-1.698;2023-06-04T01:14:22;3.67;;;3.05;;
16862;SDS011;52193;48.216;-1.698;2023-06-04T01:16:49;5.35;;;3.28;;
16862;SDS011;52193;48.216;-1.698;2023-06-04T01:19:52;5.22;;;3.42;;
16862;SDS011;52193;48.216;-1.698;2023-06-04T01:22:31;5.13;;;2.92;;
16862;SDS011;52193;48.216;-1.698;2023-06-04T01:25:03;6.88;;;3.10;;
16862;SDS011;52193;48.216;-1.698;2023-06-04T01:27:31;5.13;;;3.25;;
16862;SDS011;52193;48.216;-1.698;2023-06-04T01:30:01;5.60;;;3.25;;
16862;SDS011;52193;48.216;-1.698;2023-06-04T01:32:28;4.97;;;3.17;;
16862;SDS011;52193;48.216;-1.698;2023-06-04T01:34:58;4.22;;;2.95;;
16862;SDS011;52193;48.216;-1.698;2023-06-04T01:37:25;4.50;;;2.90;;
16862;SDS011;52193;48.216;-1.698;2023-06-04T01:39:52;5.40;;;3.72;;
16862;SDS011;52193;48.216;-1.698;2023-06-04T01:42:19;3.30;;;3.00;;
16862;SDS011;52193;48.216;-1.698;2023-06-04T01:44:46;7.93;;;3.67;;
16862;SDS011;52193;48.216;-1.698;2023-06-04T01:47:13;5.00;;;3.15;;
16862;SDS011;52193;48.216;-1.698;2023-06-04T01:49:40;4.05;;;3.20;;
16862;SDS011;52193;48.216;-1.698;2023-06-04T01:52:08;3.72;;;3.33;;
16862;SDS011;52193;48.216;-1.698;2023-06-04T01:54:36;4.13;;;2.92;;
16862;SDS011;52193;48.216;-1.698;2023-06-04T01:57:03;4.28;;;2.80;;
16862;SDS011;52193;48.216;-1.698;2023-06-04T01:59:31;4.68;;;3.10;;
16862;SDS011;52193;48.216;-1.698;2023-06-04T02:01:59;3.88;;;2.60;;
16862;SDS011;52193;48.216;-1.698;2023-06-04T02:04:27;8.05;;;3.17;;
16862;SDS011;52193;48.216;-1.698;2023-06-04T02:06:54;4.18;;;2.90;;
16862;SDS011;52193;48.216;-1.698;2023-06-04T02:09:25;4.25;;;2.75;;
16862;SDS011;52193;48.216;-1.698;2023-06-04T02:11:52;6.78;;;3.20;;
16862;SDS011;52193;48.216;-1.698;2023-06-04T02:14:19;4.60;;;2.90;;
16862;SDS011;52193;48.216;-1.698;2023-06-04T02:16:46;4.75;;;3.00;;
16862;SDS011;52193;48.216;-1.698;2023-06-04T02:19:15;6.00;;;3.17;;
16862;SDS011;52193;48.216;-1.698;2023-06-04T02:21:43;4.40;;;2.90;;
16862;SDS011;52193;48.216;-1.698;2023-06-04T02:24:10;3.90;;;3.00;;
16862;SDS011;52193;48.216;-1.698;2023-06-04T02:26:38;4.40;;;2.80;;
16862;SDS011;52193;48.216;-1.698;2023-06-04T02:29:05;2.78;;;2.33;;
16862;SDS011;52193;48.216;-1.698;2023-06-04T02:31:32;6.78;;;3.17;;
16862;SDS011;52193;48.216;-1.698;2023-06-04T02:33:59;5.03;;;3.05;;
16862;SDS011;52193;48.216;-1.698;2023-06-04T02:36:26;3.45;;;2.97;;
16862;SDS011;52193;48.216;-1.698;2023-06-04T02:38:54;5.00;;;2.92;;
16862;SDS011;52193;48.216;-1.698;2023-06-04T02:41:21;4.05;;;2.78;;
16862;SDS011;52193;48.216;-1.698;2023-06-04T02:43:50;3.38;;;2.80;;
16862;SDS011;52193;48.216;-1.698;2023-06-04T02:46:17;3.70;;;2.85;;
16862;SDS011;52193;48.216;-1.698;2023-06-04T02:48:44;5.00;;;3.53;;
16862;SDS011;52193;48.216;-1.698;2023-06-04T02:51:11;4.80;;;3.08;;
16862;SDS011;52193;48.216;-1.698;2023-06-04T02:53:38;4.07;;;3.00;;
16862;SDS011;52193;48.216;-1.698;2023-06-04T02:56:06;2.97;;;2.78;;
16862;SDS011;52193;48.216;-1.698;2023-06-04T02:58:33;4.65;;;3.00;;
16862;SDS011;52193;48.216;-1.698;2023-06-04T03:01:05;4.63;;;3.10;;
16862;SDS011;52193;48.216;-1.698;2023-06-04T03:03:33;3.28;;;2.97;;
16862;SDS011;52193;48.216;-1.698;2023-06-04T03:05:59;5.10;;;3.00;;
16862;SDS011;52193;48.216;-1.698;2023-06-04T03:08:27;3.45;;;2.83;;
16862;SDS011;52193;48.216;-1.698;2023-06-04T03:10:54;4.55;;;2.72;;
16862;SDS011;52193;48.216;-1.698;2023-06-04T03:13:21;4.35;;;2.88;;
16862;SDS011;52193;48.216;-1.698;2023-06-04T03:15:48;5.18;;;2.88;;
16862;SDS011;52193;48.216;-1.698;2023-06-04T03:18:16;3.10;;;2.80;;
16862;SDS011;52193;48.216;-1.698;2023-06-04T03:20:43;4.05;;;2.65;;
16862;SDS011;52193;48.216;-1.698;2023-06-04T03:23:10;5.30;;;2.83;;
16862;SDS011;52193;48.216;-1.698;2023-06-04T03:25:37;3.40;;;3.10;;
16862;SDS011;52193;48.216;-1.698;2023-06-04T03:28:04;3.42;;;2.40;;
16862;SDS011;52193;48.216;-1.698;2023-06-04T03:30:31;5.40;;;3.10;;
16862;SDS011;52193;48.216;-1.698;2023-06-04T03:32:58;5.78;;;2.75;;
16862;SDS011;52193;48.216;-1.698;2023-06-04T03:35:26;4.70;;;2.85;;
16862;SDS011;52193;48.216;-1.698;2023-06-04T03:37:53;3.65;;;2.80;;
16862;SDS011;52193;48.216;-1.698;2023-06-04T03:40:20;3.63;;;2.40;;
16862;SDS011;52193;48.216;-1.698;2023-06-04T03:42:47;2.92;;;2.63;;
16862;SDS011;52193;48.216;-1.698;2023-06-04T03:45:14;2.97;;;2.67;;
16862;SDS011;52193;48.216;-1.698;2023-06-04T03:47:41;2.75;;;2.45;;
16862;SDS011;52193;48.216;-1.698;2023-06-04T03:50:08;4.55;;;2.47;;
16862;SDS011;52193;48.216;-1.698;2023-06-04T03:52:37;5.40;;;3.03;;
16862;SDS011;52193;48.216;-1.698;2023-06-04T03:55:04;3.72;;;2.92;;
16862;SDS011;52193;48.216;-1.698;2023-06-04T03:57:32;3.53;;;2.50;;
16862;SDS011;52193;48.216;-1.698;2023-06-04T03:59:59;3.20;;;2.55;;
16862;SDS011;52193;48.216;-1.698;2023-06-04T04:02:26;4.25;;;2.60;;
16862;SDS011;52193;48.216;-1.698;2023-06-04T04:04:53;4.10;;;2.65;;
16862;SDS011;52193;48.216;-1.698;2023-06-04T04:07:22;4.25;;;2.50;;
16862;SDS011;52193;48.216;-1.698;2023-06-04T04:09:51;3.05;;;2.80;;
16862;SDS011;52193;48.216;-1.698;2023-06-04T04:12:18;3.33;;;2.45;;
16862;SDS011;52193;48.216;-1.698;2023-06-04T04:14:45;4.20;;;2.75;;
16862;SDS011;52193;48.216;-1.698;2023-06-04T04:17:12;3.83;;;2.33;;
16862;SDS011;52193;48.216;-1.698;2023-06-04T04:19:39;5.10;;;2.70;;
16862;SDS011;52193;48.216;-1.698;2023-06-04T04:22:06;4.25;;;2.70;;
16862;SDS011;52193;48.216;-1.698;2023-06-04T04:24:34;3.40;;;2.55;;
16862;SDS011;52193;48.216;-1.698;2023-06-04T04:27:04;4.13;;;2.70;;
16862;SDS011;52193;48.216;-1.698;2023-06-04T04:29:36;5.13;;;2.53;;
16862;SDS011;52193;48.216;-1.698;2023-06-04T04:32:03;4.82;;;2.67;;
16862;SDS011;52193;48.216;-1.698;2023-06-04T04:34:35;3.03;;;2.67;;
16862;SDS011;52193;48.216;-1.698;2023-06-04T04:37:04;4.70;;;2.83;;
16862;SDS011;52193;48.216;-1.698;2023-06-04T04:39:33;2.90;;;2.70;;
16862;SDS011;52193;48.216;-1.698;2023-06-04T04:42:01;2.65;;;2.28;;
16862;SDS011;52193;48.216;-1.698;2023-06-04T04:44:29;4.30;;;2.70;;
16862;SDS011;52193;48.216;-1.698;2023-06-04T04:46:56;4.00;;;2.30;;
16862;SDS011;52193;48.216;-1.698;2023-06-04T04:49:23;4.28;;;2.38;;
16862;SDS011;52193;48.216;-1.698;2023-06-04T04:51:50;5.95;;;2.75;;
16862;SDS011;52193;48.216;-1.698;2023-06-04T04:54:17;2.78;;;2.40;;
16862;SDS011;52193;48.216;-1.698;2023-06-04T04:56:44;2.70;;;2.35;;
16862;SDS011;52193;48.216;-1.698;2023-06-04T04:59:11;3.25;;;2.67;;
16862;SDS011;52193;48.216;-1.698;2023-06-04T05:01:39;2.92;;;2.35;;
16862;SDS011;52193;48.216;-1.698;2023-06-04T05:04:06;4.25;;;2.42;;
16862;SDS011;52193;48.216;-1.698;2023-06-04T05:06:33;2.92;;;2.20;;
16862;SDS011;52193;48.216;-1.698;2023-06-04T05:09:01;4.28;;;2.20;;
16862;SDS011;52193;48.216;-1.698;2023-06-04T05:11:29;2.50;;;2.30;;
16862;SDS011;52193;48.216;-1.698;2023-06-04T05:13:55;4.97;;;2.42;;
16862;SDS011;52193;48.216;-1.698;2023-06-04T05:16:22;3.60;;;2.28;;
16862;SDS011;52193;48.216;-1.698;2023-06-04T05:18:54;2.25;;;2.05;;
16862;SDS011;52193;48.216;-1.698;2023-06-04T05:21:21;3.75;;;2.75;;
16862;SDS011;52193;48.216;-1.698;2023-06-04T05:23:48;7.07;;;2.63;;
16862;SDS011;52193;48.216;-1.698;2023-06-04T05:26:15;2.40;;;2.20;;
16862;SDS011;52193;48.216;-1.698;2023-06-04T05:28:43;3.85;;;2.60;;
16862;SDS011;52193;48.216;-1.698;2023-06-04T05:31:09;3.78;;;2.50;;
16862;SDS011;52193;48.216;-1.698;2023-06-04T05:33:38;3.35;;;2.65;;
16862;SDS011;52193;48.216;-1.698;2023-06-04T05:36:06;3.58;;;2.60;;
16862;SDS011;52193;48.216;-1.698;2023-06-04T05:38:33;4.43;;;2.45;;
16862;SDS011;52193;48.216;-1.698;2023-06-04T05:41:00;2.67;;;2.30;;
16862;SDS011;52193;48.216;-1.698;2023-06-04T05:43:28;2.58;;;2.25;;
16862;SDS011;52193;48.216;-1.698;2023-06-04T05:45:55;3.15;;;2.10;;
16862;SDS011;52193;48.216;-1.698;2023-06-04T05:48:22;3.17;;;2.40;;
16862;SDS011;52193;48.216;-1.698;2023-06-04T05:50:48;4.50;;;2.55;;
16862;SDS011;52193;48.216;-1.698;2023-06-04T05:53:17;2.63;;;2.17;;
16862;SDS011;52193;48.216;-1.698;2023-06-04T05:55:44;3.72;;;2.28;;
16862;SDS011;52193;48.216;-1.698;2023-06-04T05:58:11;2.58;;;2.38;;
16862;SDS011;52193;48.216;-1.698;2023-06-04T06:00:38;3.80;;;2.58;;
16862;SDS011;52193;48.216;-1.698;2023-06-04T06:03:05;3.92;;;2.53;;
16862;SDS011;52193;48.216;-1.698;2023-06-04T06:05:32;2.28;;;2.08;;
16862;SDS011;52193;48.216;-1.698;2023-06-04T06:07:59;3.10;;;2.20;;
16862;SDS011;52193;48.216;-1.698;2023-06-04T06:10:28;2.72;;;2.22;;
16862;SDS011;52193;48.216;-1.698;2023-06-04T06:12:54;3.10;;;2.45;;
16862;SDS011;52193;48.216;-1.698;2023-06-04T06:15:21;3.22;;;2.25;;
16862;SDS011;52193;48.216;-1.698;2023-06-04T06:17:48;3.60;;;2.55;;
16862;SDS011;52193;48.216;-1.698;2023-06-04T06:20:17;3.10;;;2.50;;
16862;SDS011;52193;48.216;-1.698;2023-06-04T06:22:44;3.35;;;2.47;;
16862;SDS011;52193;48.216;-1.698;2023-06-04T06:25:11;4.80;;;2.60;;
16862;SDS011;52193;48.216;-1.698;2023-06-04T06:27:40;3.17;;;2.13;;
16862;SDS011;52193;48.216;-1.698;2023-06-04T06:30:07;3.22;;;2.05;;
16862;SDS011;52193;48.216;-1.698;2023-06-04T06:32:35;2.70;;;2.50;;
16862;SDS011;52193;48.216;-1.698;2023-06-04T06:35:02;3.58;;;2.55;;
16862;SDS011;52193;48.216;-1.698;2023-06-04T06:37:29;4.43;;;2.40;;
16862;SDS011;52193;48.216;-1.698;2023-06-04T06:39:56;2.40;;;2.20;;
16862;SDS011;52193;48.216;-1.698;2023-06-04T06:42:23;2.85;;;2.45;;
16862;SDS011;52193;48.216;-1.698;2023-06-04T06:44:51;2.85;;;2.50;;
16862;SDS011;52193;48.216;-1.698;2023-06-04T06:47:18;3.65;;;2.10;;
16862;SDS011;52193;48.216;-1.698;2023-06-04T06:49:45;4.47;;;2.50;;
16862;SDS011;52193;48.216;-1.698;2023-06-04T06:52:12;2.50;;;2.03;;
16862;SDS011;52193;48.216;-1.698;2023-06-04T06:54:39;2.83;;;2.40;;
16862;SDS011;52193;48.216;-1.698;2023-06-04T06:57:06;4.45;;;2.15;;
16862;SDS011;52193;48.216;-1.698;2023-06-04T06:59:34;3.15;;;2.33;;
16862;SDS011;52193;48.216;-1.698;2023-06-04T07:02:02;2.75;;;1.98;;
16862;SDS011;52193;48.216;-1.698;2023-06-04T07:04:30;5.03;;;2.38;;
16862;SDS011;52193;48.216;-1.698;2023-06-04T07:06:56;2.72;;;1.90;;
16862;SDS011;52193;48.216;-1.698;2023-06-04T07:09:23;2.20;;;2.10;;
16862;SDS011;52193;48.216;-1.698;2023-06-04T07:11:50;3.13;;;2.08;;
16862;SDS011;52193;48.216;-1.698;2023-06-04T07:14:17;2.28;;;2.00;;
16862;SDS011;52193;48.216;-1.698;2023-06-04T07:16:45;2.47;;;2.28;;
16862;SDS011;52193;48.216;-1.698;2023-06-04T07:19:13;1.95;;;1.83;;
16862;SDS011;52193;48.216;-1.698;2023-06-04T07:21:40;3.22;;;2.35;;
16862;SDS011;52193;48.216;-1.698;2023-06-04T07:24:07;1.95;;;1.70;;
16862;SDS011;52193;48.216;-1.698;2023-06-04T07:26:33;2.88;;;1.98;;
16862;SDS011;52193;48.216;-1.698;2023-06-04T07:29:00;2.50;;;2.30;;
16862;SDS011;52193;48.216;-1.698;2023-06-04T07:31:27;1.90;;;1.80;;
16862;SDS011;52193;48.216;-1.698;2023-06-04T07:33:54;3.42;;;2.35;;
16862;SDS011;52193;48.216;-1.698;2023-06-04T07:36:22;5.65;;;2.35;;
16862;SDS011;52193;48.216;-1.698;2023-06-04T07:38:49;2.67;;;2.47;;
16862;SDS011;52193;48.216;-1.698;2023-06-04T07:41:16;2.50;;;2.13;;
16862;SDS011;52193;48.216;-1.698;2023-06-04T07:43:43;2.67;;;2.22;;
16862;SDS011;52193;48.216;-1.698;2023-06-04T07:46:10;2.10;;;1.90;;
16862;SDS011;52193;48.216;-1.698;2023-06-04T07:48:37;2.95;;;2.10;;
16862;SDS011;52193;48.216;-1.698;2023-06-04T07:51:04;2.45;;;1.95;;
16862;SDS011;52193;48.216;-1.698;2023-06-04T07:53:33;4.55;;;2.20;;
16862;SDS011;52193;48.216;-1.698;2023-06-04T07:56:00;2.25;;;2.05;;
16862;SDS011;52193;48.216;-1.698;2023-06-04T07:58:27;2.30;;;2.00;;
16862;SDS011;52193;48.216;-1.698;2023-06-04T08:00:54;2.15;;;1.92;;
16862;SDS011;52193;48.216;-1.698;2023-06-04T08:03:21;4.70;;;2.70;;
16862;SDS011;52193;48.216;-1.698;2023-06-04T08:05:49;2.95;;;2.50;;
16862;SDS011;52193;48.216;-1.698;2023-06-04T08:08:16;2.92;;;2.05;;
16862;SDS011;52193;48.216;-1.698;2023-06-04T08:10:44;3.05;;;1.90;;
16862;SDS011;52193;48.216;-1.698;2023-06-04T08:13:11;2.72;;;1.90;;
16862;SDS011;52193;48.216;-1.698;2023-06-04T08:15:38;2.15;;;2.05;;
16862;SDS011;52193;48.216;-1.698;2023-06-04T08:18:05;2.67;;;2.00;;
16862;SDS011;52193;48.216;-1.698;2023-06-04T08:20:32;3.72;;;2.13;;
16862;SDS011;52193;48.216;-1.698;2023-06-04T08:22:59;3.58;;;1.90;;
16862;SDS011;52193;48.216;-1.698;2023-06-04T08:25:26;2.63;;;1.90;;
16862;SDS011;52193;48.216;-1.698;2023-06-04T08:27:54;2.50;;;1.80;;
16862;SDS011;52193;48.216;-1.698;2023-06-04T08:30:21;2.47;;;1.95;;
16862;SDS011;52193;48.216;-1.698;2023-06-04T08:32:48;2.15;;;2.05;;
16862;SDS011;52193;48.216;-1.698;2023-06-04T08:35:15;1.90;;;1.80;;
16862;SDS011;52193;48.216;-1.698;2023-06-04T08:37:42;2.95;;;2.20;;
16862;SDS011;52193;48.216;-1.698;2023-06-04T08:40:09;3.17;;;2.00;;
16862;SDS011;52193;48.216;-1.698;2023-06-04T08:42:38;2.20;;;2.00;;
16862;SDS011;52193;48.216;-1.698;2023-06-04T08:45:11;2.42;;;1.90;;
16862;SDS011;52193;48.216;-1.698;2023-06-04T08:47:40;2.13;;;2.03;;
16862;SDS011;52193;48.216;-1.698;2023-06-04T08:50:10;4.40;;;2.25;;
16862;SDS011;52193;48.216;-1.698;2023-06-04T08:52:38;2.90;;;1.88;;
16862;SDS011;52193;48.216;-1.698;2023-06-04T08:55:06;4.30;;;2.30;;
16862;SDS011;52193;48.216;-1.698;2023-06-04T08:57:38;2.25;;;2.05;;
16862;SDS011;52193;48.216;-1.698;2023-06-04T09:00:06;2.20;;;2.00;;
16862;SDS011;52193;48.216;-1.698;2023-06-04T09:02:35;1.85;;;1.60;;
16862;SDS011;52193;48.216;-1.698;2023-06-04T09:05:03;2.75;;;2.00;;
16862;SDS011;52193;48.216;-1.698;2023-06-04T09:07:33;1.80;;;1.70;;
16862;SDS011;52193;48.216;-1.698;2023-06-04T09:10:04;2.38;;;2.10;;
16862;SDS011;52193;48.216;-1.698;2023-06-04T09:12:33;1.90;;;1.80;;
16862;SDS011;52193;48.216;-1.698;2023-06-04T09:15:02;4.07;;;1.90;;
16862;SDS011;52193;48.216;-1.698;2023-06-04T09:17:29;3.13;;;2.08;;
16862;SDS011;52193;48.216;-1.698;2023-06-04T09:19:58;2.75;;;2.15;;
16862;SDS011;52193;48.216;-1.698;2023-06-04T09:22:34;2.10;;;1.67;;
16862;SDS011;52193;48.216;-1.698;2023-06-04T09:25:03;3.38;;;2.00;;
16862;SDS011;52193;48.216;-1.698;2023-06-04T09:27:37;2.20;;;1.95;;
16862;SDS011;52193;48.216;-1.698;2023-06-04T09:30:05;2.53;;;2.30;;
16862;SDS011;52193;48.216;-1.698;2023-06-04T09:32:33;1.80;;;1.70;;
16862;SDS011;52193;48.216;-1.698;2023-06-04T09:35:09;2.72;;;1.77;;
16862;SDS011;52193;48.216;-1.698;2023-06-04T09:37:37;2.75;;;2.08;;
16862;SDS011;52193;48.216;-1.698;2023-06-04T09:40:06;2.10;;;1.70;;
16862;SDS011;52193;48.216;-1.698;2023-06-04T09:42:41;3.10;;;1.98;;
16862;SDS011;52193;48.216;-1.698;2023-06-04T09:45:09;3.28;;;2.67;;
16862;SDS011;52193;48.216;-1.698;2023-06-04T09:47:40;4.35;;;3.47;;
16862;SDS011;52193;48.216;-1.698;2023-06-04T09:50:10;4.07;;;2.55;;
16862;SDS011;52193;48.216;-1.698;2023-06-04T09:52:37;2.15;;;1.95;;
16862;SDS011;52193;48.216;-1.698;2023-06-04T09:55:14;2.88;;;2.67;;
16862;SDS011;52193;48.216;-1.698;2023-06-04T09:57:44;3.58;;;2.70;;
16862;SDS011;52193;48.216;-1.698;2023-06-04T10:00:13;4.93;;;2.80;;
16862;SDS011;52193;48.216;-1.698;2023-06-04T10:02:43;3.30;;;2.10;;
16862;SDS011;52193;48.216;-1.698;2023-06-04T10:05:13;4.00;;;2.90;;
16862;SDS011;52193;48.216;-1.698;2023-06-04T10:07:41;2.50;;;2.30;;
16862;SDS011;52193;48.216;-1.698;2023-06-04T10:10:10;2.90;;;2.63;;
16862;SDS011;52193;48.216;-1.698;2023-06-04T10:12:41;3.17;;;2.88;;
16862;SDS011;52193;48.216;-1.698;2023-06-04T10:15:10;2.80;;;2.60;;
16862;SDS011;52193;48.216;-1.698;2023-06-04T10:17:38;4.63;;;3.80;;
16862;SDS011;52193;48.216;-1.698;2023-06-04T10:20:06;3.92;;;3.63;;
16862;SDS011;52193;48.216;-1.698;2023-06-04T10:22:37;6.25;;;5.13;;
16862;SDS011;52193;48.216;-1.698;2023-06-04T10:25:04;3.85;;;3.55;;
16862;SDS011;52193;48.216;-1.698;2023-06-04T10:27:33;4.70;;;4.20;;
16862;SDS011;52193;48.216;-1.698;2023-06-04T10:30:01;6.05;;;4.95;;
16862;SDS011;52193;48.216;-1.698;2023-06-04T10:32:29;5.25;;;3.47;;
16862;SDS011;52193;48.216;-1.698;2023-06-04T10:34:56;4.35;;;3.28;;
16862;SDS011;52193;48.216;-1.698;2023-06-04T10:37:24;6.35;;;5.85;;
16862;SDS011;52193;48.216;-1.698;2023-06-04T10:39:53;4.70;;;4.18;;
16862;SDS011;52193;48.216;-1.698;2023-06-04T10:42:21;8.32;;;5.35;;
16862;SDS011;52193;48.216;-1.698;2023-06-04T10:44:49;5.43;;;4.45;;
16862;SDS011;52193;48.216;-1.698;2023-06-04T10:47:18;4.70;;;3.72;;
16862;SDS011;52193;48.216;-1.698;2023-06-04T10:49:46;5.63;;;3.33;;
16862;SDS011;52193;48.216;-1.698;2023-06-04T10:52:13;4.15;;;3.70;;
16862;SDS011;52193;48.216;-1.698;2023-06-04T10:54:41;3.85;;;2.75;;
16862;SDS011;52193;48.216;-1.698;2023-06-04T10:57:13;2.75;;;2.55;;
16862;SDS011;52193;48.216;-1.698;2023-06-04T10:59:41;4.07;;;3.40;;
16862;SDS011;52193;48.216;-1.698;2023-06-04T11:02:19;4.05;;;3.65;;
16862;SDS011;52193;48.216;-1.698;2023-06-04T11:04:46;3.58;;;3.28;;
16862;SDS011;52193;48.216;-1.698;2023-06-04T11:07:14;4.05;;;3.08;;
16862;SDS011;52193;48.216;-1.698;2023-06-04T11:09:47;5.05;;;4.55;;
16862;SDS011;52193;48.216;-1.698;2023-06-04T11:12:16;4.30;;;4.00;;
16862;SDS011;52193;48.216;-1.698;2023-06-04T11:14:53;4.93;;;4.43;;
16862;SDS011;52193;48.216;-1.698;2023-06-04T11:17:20;3.97;;;3.67;;
16862;SDS011;52193;48.216;-1.698;2023-06-04T11:19:47;3.08;;;2.88;;
16862;SDS011;52193;48.216;-1.698;2023-06-04T11:22:14;4.15;;;3.45;;
16862;SDS011;52193;48.216;-1.698;2023-06-04T11:24:41;5.15;;;3.65;;
16862;SDS011;52193;48.216;-1.698;2023-06-04T11:27:08;4.90;;;3.05;;
16862;SDS011;52193;48.216;-1.698;2023-06-04T11:29:37;6.45;;;5.75;;
16862;SDS011;52193;48.216;-1.698;2023-06-04T11:32:04;5.43;;;3.60;;
16862;SDS011;52193;48.216;-1.698;2023-06-04T11:34:31;3.90;;;3.58;;
16862;SDS011;52193;48.216;-1.698;2023-06-04T11:37:07;4.80;;;3.88;;
16862;SDS011;52193;48.216;-1.698;2023-06-04T11:39:35;3.30;;;3.10;;
16862;SDS011;52193;48.216;-1.698;2023-06-04T11:42:04;3.72;;;3.42;;
16862;SDS011;52193;48.216;-1.698;2023-06-04T11:44:32;4.13;;;3.72;;
16862;SDS011;52193;48.216;-1.698;2023-06-04T11:47:01;3.20;;;3.00;;
16862;SDS011;52193;48.216;-1.698;2023-06-04T11:49:33;4.13;;;3.47;;
16862;SDS011;52193;48.216;-1.698;2023-06-04T11:52:02;3.42;;;3.10;;
16862;SDS011;52193;48.216;-1.698;2023-06-04T11:54:30;3.45;;;3.15;;
16862;SDS011;52193;48.216;-1.698;2023-06-04T11:57:02;3.45;;;3.17;;
16862;SDS011;52193;48.216;-1.698;2023-06-04T11:59:29;3.17;;;2.95;;
16862;SDS011;52193;48.216;-1.698;2023-06-04T12:01:57;3.85;;;3.22;;
16862;SDS011;52193;48.216;-1.698;2023-06-04T12:04:29;5.72;;;3.58;;
16862;SDS011;52193;48.216;-1.698;2023-06-04T12:06:57;3.10;;;2.78;;
16862;SDS011;52193;48.216;-1.698;2023-06-04T12:09:27;4.93;;;3.55;;
16862;SDS011;52193;48.216;-1.698;2023-06-04T12:11:59;4.55;;;3.47;;
16862;SDS011;52193;48.216;-1.698;2023-06-04T12:14:27;7.80;;;3.92;;
16862;SDS011;52193;48.216;-1.698;2023-06-04T12:16:54;4.88;;;3.47;;
16862;SDS011;52193;48.216;-1.698;2023-06-04T12:19:21;3.10;;;2.80;;
16862;SDS011;52193;48.216;-1.698;2023-06-04T12:21:58;2.60;;;2.50;;
16862;SDS011;52193;48.216;-1.698;2023-06-04T12:24:26;3.25;;;2.83;;
16862;SDS011;52193;48.216;-1.698;2023-06-04T12:27:00;3.33;;;3.05;;
16862;SDS011;52193;48.216;-1.698;2023-06-04T12:29:28;3.72;;;3.00;;
16862;SDS011;52193;48.216;-1.698;2023-06-04T12:32:01;2.95;;;2.70;;
16862;SDS011;52193;48.216;-1.698;2023-06-04T12:34:29;2.90;;;2.70;;
16862;SDS011;52193;48.216;-1.698;2023-06-04T12:36:58;3.10;;;2.83;;
16862;SDS011;52193;48.216;-1.698;2023-06-04T12:39:25;4.60;;;3.50;;
16862;SDS011;52193;48.216;-1.698;2023-06-04T12:41:52;2.88;;;2.60;;
16862;SDS011;52193;48.216;-1.698;2023-06-04T12:44:19;3.00;;;2.70;;
16862;SDS011;52193;48.216;-1.698;2023-06-04T12:46:46;2.70;;;2.50;;
16862;SDS011;52193;48.216;-1.698;2023-06-04T12:49:13;2.60;;;2.40;;
16862;SDS011;52193;48.216;-1.698;2023-06-04T12:51:40;2.72;;;2.53;;
16862;SDS011;52193;48.216;-1.698;2023-06-04T12:54:08;3.58;;;3.28;;
16862;SDS011;52193;48.216;-1.698;2023-06-04T12:56:36;3.42;;;3.10;;
16862;SDS011;52193;48.216;-1.698;2023-06-04T12:59:03;2.70;;;2.50;;
16862;SDS011;52193;48.216;-1.698;2023-06-04T13:01:29;3.58;;;3.00;;
16862;SDS011;52193;48.216;-1.698;2023-06-04T13:03:56;2.97;;;2.58;;
16862;SDS011;52193;48.216;-1.698;2023-06-04T13:06:23;3.03;;;2.83;;
16862;SDS011;52193;48.216;-1.698;2023-06-04T13:08:51;2.70;;;2.50;;
16862;SDS011;52193;48.216;-1.698;2023-06-04T13:11:19;2.80;;;2.60;;
16862;SDS011;52193;48.216;-1.698;2023-06-04T13:13:46;3.15;;;2.85;;
16862;SDS011;52193;48.216;-1.698;2023-06-04T13:16:13;3.08;;;2.80;;
16862;SDS011;52193;48.216;-1.698;2023-06-04T13:18:40;3.47;;;2.88;;
16862;SDS011;52193;48.216;-1.698;2023-06-04T13:21:07;3.30;;;3.00;;
16862;SDS011;52193;48.216;-1.698;2023-06-04T13:23:34;2.70;;;2.50;;
16862;SDS011;52193;48.216;-1.698;2023-06-04T13:26:01;3.00;;;2.80;;
16862;SDS011;52193;48.216;-1.698;2023-06-04T13:28:29;4.30;;;2.80;;
16862;SDS011;52193;48.216;-1.698;2023-06-04T13:30:56;3.17;;;2.90;;
16862;SDS011;52193;48.216;-1.698;2023-06-04T13:33:23;2.97;;;2.75;;
16862;SDS011;52193;48.216;-1.698;2023-06-04T13:35:50;2.97;;;2.70;;
16862;SDS011;52193;48.216;-1.698;2023-06-04T13:38:18;3.22;;;2.92;;
16862;SDS011;52193;48.216;-1.698;2023-06-04T13:40:45;3.00;;;2.70;;
16862;SDS011;52193;48.216;-1.698;2023-06-04T13:43:11;2.78;;;2.58;;
16862;SDS011;52193;48.216;-1.698;2023-06-04T13:45:40;2.65;;;2.45;;
16862;SDS011;52193;48.216;-1.698;2023-06-04T13:48:09;3.75;;;2.40;;
16862;SDS011;52193;48.216;-1.698;2023-06-04T13:50:36;2.53;;;2.33;;
16862;SDS011;52193;48.216;-1.698;2023-06-04T13:53:03;3.20;;;3.00;;
16862;SDS011;52193;48.216;-1.698;2023-06-04T13:55:30;3.20;;;2.90;;
16862;SDS011;52193;48.216;-1.698;2023-06-04T13:57:57;3.20;;;2.95;;
16862;SDS011;52193;48.216;-1.698;2023-06-04T14:00:24;2.50;;;2.40;;
16862;SDS011;52193;48.216;-1.698;2023-06-04T14:02:52;2.60;;;2.40;;
16862;SDS011;52193;48.216;-1.698;2023-06-04T14:05:20;3.20;;;2.90;;
16862;SDS011;52193;48.216;-1.698;2023-06-04T14:07:47;3.08;;;2.80;;
16862;SDS011;52193;48.216;-1.698;2023-06-04T14:10:14;2.90;;;2.70;;
16862;SDS011;52193;48.216;-1.698;2023-06-04T14:12:41;2.72;;;2.25;;
16862;SDS011;52193;48.216;-1.698;2023-06-04T14:15:09;4.78;;;3.00;;
16862;SDS011;52193;48.216;-1.698;2023-06-04T14:17:36;2.47;;;2.30;;
16862;SDS011;52193;48.216;-1.698;2023-06-04T14:20:06;2.58;;;2.40;;
16862;SDS011;52193;48.216;-1.698;2023-06-04T14:22:33;2.60;;;2.25;;
16862;SDS011;52193;48.216;-1.698;2023-06-04T14:25:01;3.25;;;2.42;;
16862;SDS011;52193;48.216;-1.698;2023-06-04T14:27:28;2.67;;;2.50;;
16862;SDS011;52193;48.216;-1.698;2023-06-04T14:29:55;2.92;;;2.72;;
16862;SDS011;52193;48.216;-1.698;2023-06-04T14:32:22;4.13;;;2.58;;
16862;SDS011;52193;48.216;-1.698;2023-06-04T14:34:49;2.88;;;2.35;;
16862;SDS011;52193;48.216;-1.698;2023-06-04T14:37:18;4.88;;;2.88;;